Time;durP1;ratioP1;P1;durP2;ratioP2;P2;SDS_P1;SDS_P2;PMS_P1;PMS_P2;Temp;Humidity;BMP_temperature;BMP_pressure;BME280_temperature;BME280_humidity;BME280_pressure;Samples;Min_cycle;Max_cycle;Signal;HPM_P1;HPM_P2
2023/01/09 00:01:34;;;;;;;2.92;2.40;;;6.60;99.90;;;;;;4907156;29;20051;-76
2023/01/09 00:04:00;;;;;;;3.15;1.25;;;6.60;99.90;;;;;;4906866;29;20051;-77
2023/01/09 00:06:27;;;;;;;3.08;1.50;;;6.60;99.90;;;;;;4911255;28;20044;-76
2023/01/09 00:08:52;;;;;;;3.85;1.52;;;6.60;99.90;;;;;;4925690;29;20044;-76
2023/01/09 00:11:19;;;;;;;3.08;1.50;;;6.60;99.90;;;;;;4941155;29;20072;-76
2023/01/09 00:13:46;;;;;;;2.28;1.65;;;6.60;99.90;;;;;;4940200;29;20032;-76
2023/01/09 00:16:12;;;;;;;2.60;1.27;;;6.60;99.90;;;;;;4929286;29;20148;-76
2023/01/09 00:18:38;;;;;;;1.55;1.23;;;6.60;99.90;;;;;;4906870;29;20048;-76
2023/01/09 00:21:07;;;;;;;4.80;2.10;;;6.60;99.90;;;;;;4906631;29;20388;-76
2023/01/09 00:23:33;;;;;;;2.33;1.20;;;6.60;99.90;;;;;;4906550;29;20056;-76
2023/01/09 00:26:14;;;;;;;2.60;1.60;;;6.60;99.90;;;;;;4907009;28;20510;-76
2023/01/09 00:28:40;;;;;;;3.17;1.63;;;6.60;99.90;;;;;;4918099;29;20090;-76
2023/01/09 00:31:07;;;;;;;1.65;1.55;;;6.60;99.90;;;;;;4925623;28;20043;-76
2023/01/09 00:33:40;;;;;;;3.67;1.90;;;6.60;99.90;;;;;;4925415;29;20115;-77
2023/01/09 00:36:06;;;;;;;5.00;2.10;;;6.70;99.90;;;;;;4924048;29;20545;-76
2023/01/09 00:38:32;;;;;;;3.08;2.70;;;6.70;99.90;;;;;;4924854;29;20043;-76
2023/01/09 00:40:59;;;;;;;1.98;1.70;;;6.70;99.90;;;;;;4925478;29;20528;-76
2023/01/09 00:43:30;;;;;;;4.40;2.00;;;6.70;99.90;;;;;;4924833;29;20044;-77
2023/01/09 00:45:56;;;;;;;1.98;1.77;;;6.70;99.90;;;;;;4916771;29;20044;-76
2023/01/09 00:48:25;;;;;;;1.63;1.00;;;6.80;99.90;;;;;;4906390;28;20415;-76
2023/01/09 00:50:53;;;;;;;4.78;2.72;;;6.80;99.90;;;;;;4921101;29;20052;-77
2023/01/09 00:53:22;;;;;;;3.03;1.60;;;6.80;99.90;;;;;;4906637;29;20044;-77
2023/01/09 00:55:49;;;;;;;2.17;1.50;;;6.80;99.90;;;;;;4907128;29;20048;-76
2023/01/09 00:58:15;;;;;;;3.90;2.13;;;6.80;99.90;;;;;;4905991;28;20058;-76
2023/01/09 01:00:41;;;;;;;3.50;1.80;;;6.80;99.90;;;;;;4906351;28;20062;-76
2023/01/09 01:03:06;;;;;;;6.28;1.40;;;6.90;99.90;;;;;;4914587;28;20422;-76
2023/01/09 01:08:18;;;;;;;1.42;0.93;;;6.90;99.90;;;;;;4905968;28;20101;-76
2023/01/09 01:10:44;;;;;;;1.63;1.25;;;6.90;99.90;;;;;;4930629;29;20048;-76
2023/01/09 01:13:10;;;;;;;7.22;1.65;;;6.90;99.90;;;;;;4923997;29;20139;-76
2023/01/09 01:15:43;;;;;;;2.65;1.70;;;6.90;99.90;;;;;;4925005;29;20067;-76
2023/01/09 01:18:10;;;;;;;4.45;2.03;;;6.90;99.90;;;;;;4925012;29;20079;-76
2023/01/09 01:20:38;;;;;;;3.78;1.55;;;6.90;99.90;;;;;;4925045;29;20039;-77
2023/01/09 01:23:04;;;;;;;13.57;1.52;;;6.90;99.90;;;;;;4923601;29;20109;-76
2023/01/09 01:25:29;;;;;;;4.72;2.00;;;6.90;99.90;;;;;;4924988;28;20446;-76
2023/01/09 01:27:55;;;;;;;8.38;2.22;;;6.90;99.90;;;;;;4910358;28;20553;-77
2023/01/09 01:30:21;;;;;;;2.53;1.13;;;6.90;99.90;;;;;;4906072;29;20517;-76
2023/01/09 01:32:46;;;;;;;2.22;1.27;;;6.90;99.90;;;;;;4906119;29;20048;-76
2023/01/09 01:35:12;;;;;;;4.55;1.65;;;6.90;99.90;;;;;;4905622;28;20046;-76
2023/01/09 01:37:38;;;;;;;3.90;1.23;;;6.90;99.90;;;;;;4904720;28;20055;-76
2023/01/09 01:40:06;;;;;;;3.78;2.38;;;6.80;99.90;;;;;;4905633;28;20048;-76
2023/01/09 01:42:32;;;;;;;2.50;1.50;;;6.90;99.90;;;;;;4903839;28;20058;-77
2023/01/09 01:45:09;;;;;;;3.30;1.52;;;6.80;99.90;;;;;;4905260;29;20040;-76
2023/01/09 01:47:52;;;;;;;3.40;1.83;;;6.70;99.90;;;;;;4914074;29;20046;-76
2023/01/09 01:50:30;;;;;;;17.63;3.13;;;6.70;99.90;;;;;;4925136;28;20557;-76
2023/01/09 01:53:13;;;;;;;3.13;1.67;;;6.70;99.90;;;;;;4924697;29;20118;-77
2023/01/09 01:55:50;;;;;;;4.13;1.77;;;6.70;99.90;;;;;;4939281;29;20079;-76
2023/01/09 01:58:16;;;;;;;9.75;1.63;;;6.60;99.90;;;;;;4922809;28;20067;-76
2023/01/09 02:00:44;;;;;;;4.45;1.60;;;6.60;99.90;;;;;;4924377;29;20065;-76
2023/01/09 02:03:14;;;;;;;6.15;2.08;;;6.60;99.90;;;;;;4921197;28;20133;-77
2023/01/09 02:05:40;;;;;;;8.20;3.05;;;6.60;99.90;;;;;;4923031;29;20097;-76
2023/01/09 02:08:07;;;;;;;5.70;2.38;;;6.50;99.90;;;;;;4924346;29;20052;-77
2023/01/09 02:10:33;;;;;;;1.92;1.25;;;6.50;99.90;;;;;;4922819;28;20494;-76
2023/01/09 02:12:59;;;;;;;4.15;2.05;;;6.40;99.90;;;;;;4923249;29;20054;-76
2023/01/09 02:15:31;;;;;;;5.35;2.17;;;6.40;99.90;;;;;;4924390;29;20112;-76
2023/01/09 02:18:28;;;;;;;2.53;2.10;;;6.40;99.90;;;;;;4913187;29;20558;-77
2023/01/09 02:21:22;;;;;;;3.15;1.08;;;6.40;99.90;;;;;;4903782;29;20099;-77
2023/01/09 02:23:57;;;;;;;2.65;1.23;;;6.30;99.90;;;;;;4904372;29;20107;-76
2023/01/09 02:26:28;;;;;;;3.38;1.95;;;6.30;99.90;;;;;;4921139;28;20376;-77
2023/01/09 02:29:18;;;;;;;2.28;1.00;;;6.30;99.90;;;;;;4908272;29;20130;-76
2023/01/09 02:31:53;;;;;;;4.15;1.63;;;6.30;99.90;;;;;;4905234;28;20046;-76
2023/01/09 02:34:45;;;;;;;13.25;3.70;;;6.20;99.90;;;;;;4904887;29;20107;-77
2023/01/09 02:37:10;;;;;;;4.90;1.65;;;6.20;99.90;;;;;;4885480;29;20522;-76
2023/01/09 02:39:45;;;;;;;2.47;1.30;;;6.20;99.90;;;;;;4905176;28;20044;-76
2023/01/09 02:42:32;;;;;;;4.78;2.53;;;6.20;99.90;;;;;;4904107;29;20075;-76
2023/01/09 02:44:58;;;;;;;1.77;1.10;;;6.10;99.90;;;;;;4912550;29;20059;-77
2023/01/09 02:47:23;;;;;;;3.80;1.55;;;6.10;99.90;;;;;;4924060;28;20513;-76
2023/01/09 02:49:50;;;;;;;10.13;1.15;;;6.20;99.90;;;;;;4924015;28;20052;-77
2023/01/09 02:52:46;;;;;;;2.78;1.48;;;6.10;99.90;;;;;;4923975;29;20058;-76
2023/01/09 02:55:22;;;;;;;3.97;1.38;;;6.10;99.90;;;;;;4923775;28;20039;-76
2023/01/09 02:58:08;;;;;;;4.28;1.95;;;6.00;99.90;;;;;;4921013;29;20533;-76
2023/01/09 03:00:45;;;;;;;7.78;2.65;;;6.10;99.90;;;;;;4938389;29;20405;-76
2023/01/09 03:05:53;;;;;;;2.13;1.15;;;6.00;99.90;;;;;;4901285;29;20052;-77
2023/01/09 03:08:24;;;;;;;5.38;2.22;;;6.00;99.90;;;;;;4888103;28;20052;-77
2023/01/09 03:11:00;;;;;;;2.97;2.13;;;6.00;99.90;;;;;;4904372;29;20410;-78
2023/01/09 03:13:31;;;;;;;8.40;2.22;;;6.00;99.90;;;;;;4903717;29;20040;-77
2023/01/09 03:16:00;;;;;;;6.82;1.85;;;6.00;99.90;;;;;;4904050;28;20067;-77
2023/01/09 03:18:29;;;;;;;4.43;1.38;;;5.90;99.90;;;;;;4904515;29;20055;-77
2023/01/09 03:20:55;;;;;;;2.05;1.30;;;5.90;99.90;;;;;;4904099;28;20055;-77
2023/01/09 03:23:20;;;;;;;2.08;1.45;;;5.90;99.90;;;;;;4887425;29;20415;-78
2023/01/09 03:25:46;;;;;;;4.40;1.48;;;5.90;99.90;;;;;;4904794;28;20498;-77
2023/01/09 03:28:32;;;;;;;6.90;1.83;;;5.90;99.90;;;;;;4918645;29;20055;-77
2023/01/09 03:30:57;;;;;;;5.65;3.00;;;5.90;99.90;;;;;;4923926;29;20164;-76
2023/01/09 03:33:23;;;;;;;4.88;2.13;;;5.90;99.90;;;;;;4926335;29;20354;-77
2023/01/09 03:35:49;;;;;;;3.47;1.58;;;5.80;99.90;;;;;;4926308;29;20051;-77
2023/01/09 03:38:14;;;;;;;5.80;2.63;;;5.80;99.90;;;;;;4926499;29;20674;-77
2023/01/09 03:40:42;;;;;;;4.60;1.85;;;5.80;99.90;;;;;;4926519;29;20118;-77
2023/01/09 03:43:07;;;;;;;6.03;2.38;;;5.90;99.90;;;;;;4925485;28;20097;-77
2023/01/09 03:45:33;;;;;;;5.22;1.88;;;5.80;99.90;;;;;;4908901;29;20051;-77
2023/01/09 03:47:59;;;;;;;3.92;2.35;;;5.90;99.90;;;;;;4926183;29;20040;-77
2023/01/09 03:50:24;;;;;;;2.88;2.10;;;5.90;99.90;;;;;;4926478;29;20051;-77
2023/01/09 03:52:50;;;;;;;3.58;1.95;;;5.90;99.90;;;;;;4925739;29;20402;-77
2023/01/09 03:55:15;;;;;;;7.60;3.35;;;5.90;99.90;;;;;;4926487;29;20044;-77
2023/01/09 03:57:41;;;;;;;5.95;2.60;;;6.00;99.90;;;;;;4908953;28;20044;-77
2023/01/09 04:00:07;;;;;;;4.05;2.55;;;6.00;99.90;;;;;;4905563;29;20178;-76
2023/01/09 04:02:33;;;;;;;6.30;2.88;;;6.00;99.90;;;;;;4875651;29;20556;-76
2023/01/09 04:04:58;;;;;;;5.65;2.63;;;6.00;99.90;;;;;;4906708;29;20143;-76
2023/01/09 04:07:24;;;;;;;7.30;2.65;;;6.00;99.90;;;;;;4918049;29;20047;-77
2023/01/09 04:09:49;;;;;;;5.80;3.75;;;6.00;99.90;;;;;;4925875;29;20048;-77
2023/01/09 04:12:15;;;;;;;7.20;3.08;;;6.00;99.90;;;;;;4909106;29;20052;-77
2023/01/09 04:14:41;;;;;;;4.75;3.28;;;6.00;99.90;;;;;;4925050;29;20054;-76
2023/01/09 04:17:06;;;;;;;8.88;2.67;;;6.00;99.90;;;;;;4926136;29;20071;-77
2023/01/09 04:19:32;;;;;;;4.22;3.50;;;6.00;99.90;;;;;;4926196;29;20496;-76
2023/01/09 04:21:57;;;;;;;4.75;3.03;;;6.00;99.90;;;;;;4925957;29;20098;-76
2023/01/09 04:24:23;;;;;;;11.00;4.05;;;6.00;99.90;;;;;;4925764;29;20087;-77
2023/01/09 04:26:48;;;;;;;5.88;3.53;;;6.00;99.90;;;;;;4919670;29;20037;-78
2023/01/09 04:29:14;;;;;;;4.45;3.15;;;6.00;99.90;;;;;;4907330;29;20135;-76
2023/01/09 04:31:40;;;;;;;8.05;4.55;;;6.00;99.90;;;;;;4907922;29;20120;-76
2023/01/09 04:34:05;;;;;;;9.52;4.15;;;6.00;99.90;;;;;;4925370;29;20070;-76
2023/01/09 04:36:33;;;;;;;5.97;4.15;;;6.00;99.90;;;;;;4921836;29;20036;-77
2023/01/09 04:38:59;;;;;;;5.40;4.28;;;6.00;99.90;;;;;;4905462;28;20075;-76
2023/01/09 04:44:09;;;;;;;8.10;4.03;;;6.00;99.90;;;;;;4906088;28;20059;-76
2023/01/09 04:46:34;;;;;;;7.30;4.18;;;6.00;99.90;;;;;;4906602;29;20425;-76
2023/01/09 04:49:00;;;;;;;5.72;3.97;;;6.00;99.90;;;;;;4906674;28;20052;-76
2023/01/09 04:51:25;;;;;;;5.65;4.10;;;6.00;99.90;;;;;;4920938;29;20083;-77
2023/01/09 04:53:51;;;;;;;14.38;4.55;;;5.90;99.90;;;;;;4925158;29;20486;-77
2023/01/09 04:56:16;;;;;;;5.60;3.60;;;5.90;99.90;;;;;;4925798;28;20094;-76
2023/01/09 04:58:42;;;;;;;6.85;4.50;;;5.90;99.90;;;;;;4925019;29;20118;-76
2023/01/09 05:01:07;;;;;;;8.45;4.32;;;5.90;99.90;;;;;;4925065;29;21172;-77
2023/01/09 05:03:33;;;;;;;11.52;4.32;;;5.90;99.90;;;;;;4925497;29;20071;-77
2023/01/09 05:06:00;;;;;;;6.35;3.75;;;5.80;99.90;;;;;;4924771;29;20569;-77
2023/01/09 05:08:25;;;;;;;5.97;3.85;;;5.80;99.90;;;;;;4908077;29;20131;-76
2023/01/09 05:10:51;;;;;;;7.80;3.85;;;5.80;99.90;;;;;;4906190;29;20037;-77
2023/01/09 05:13:16;;;;;;;7.15;3.53;;;5.90;99.90;;;;;;4905892;29;20096;-76
2023/01/09 05:15:42;;;;;;;3.35;2.97;;;5.90;99.90;;;;;;4906624;29;20052;-76
2023/01/09 05:18:08;;;;;;;7.15;3.83;;;5.90;99.90;;;;;;4912097;29;20836;-76
2023/01/09 05:20:33;;;;;;;6.07;3.53;;;5.90;99.90;;;;;;4914313;29;20368;-76
2023/01/09 05:22:59;;;;;;;2.58;2.22;;;5.90;99.90;;;;;;4905723;29;20098;-77
2023/01/09 05:25:24;;;;;;;5.43;3.55;;;6.00;99.90;;;;;;4905995;29;20140;-76
2023/01/09 05:27:50;;;;;;;5.85;4.05;;;6.00;99.90;;;;;;4900476;29;20049;-76
2023/01/09 05:30:16;;;;;;;5.65;3.70;;;6.00;99.90;;;;;;4887761;29;20443;-76
2023/01/09 05:32:41;;;;;;;5.55;4.63;;;6.00;99.90;;;;;;4887048;28;20107;-77
2023/01/09 05:35:07;;;;;;;7.20;4.10;;;6.00;99.90;;;;;;4869990;29;20048;-77
2023/01/09 05:37:33;;;;;;;6.05;4.05;;;6.00;99.90;;;;;;4887138;29;20115;-76
2023/01/09 05:39:58;;;;;;;4.82;4.15;;;6.10;99.90;;;;;;4887011;29;20099;-76
2023/01/09 05:42:24;;;;;;;7.32;4.88;;;6.10;99.90;;;;;;4886339;29;20060;-76
2023/01/09 05:44:49;;;;;;;6.28;4.88;;;6.10;99.90;;;;;;4886772;29;20539;-77
2023/01/09 05:47:15;;;;;;;7.63;5.30;;;6.10;99.90;;;;;;4887124;29;20051;-76
2023/01/09 05:49:40;;;;;;;10.68;5.95;;;6.10;99.90;;;;;;4893185;29;20411;-76
2023/01/09 05:52:07;;;;;;;10.18;5.38;;;6.10;99.90;;;;;;4924439;29;20066;-76
2023/01/09 05:54:33;;;;;;;8.05;6.10;;;6.20;99.90;;;;;;4923945;28;20048;-76
2023/01/09 05:56:58;;;;;;;12.02;6.90;;;6.20;99.90;;;;;;4890204;29;20449;-76
2023/01/09 05:59:24;;;;;;;10.18;7.35;;;6.20;99.90;;;;;;4905797;29;20059;-77
2023/01/09 06:01:49;;;;;;;8.63;6.60;;;6.20;99.90;;;;;;4904117;29;20048;-77
2023/01/09 06:04:15;;;;;;;12.70;8.13;;;6.20;99.90;;;;;;4904123;29;20055;-76
2023/01/09 06:06:41;;;;;;;17.92;8.15;;;6.20;99.90;;;;;;4904964;29;20052;-78
2023/01/09 06:09:07;;;;;;;10.55;6.47;;;6.20;99.90;;;;;;4904412;29;20498;-77
2023/01/09 06:11:34;;;;;;;12.15;6.97;;;6.20;99.90;;;;;;4909192;29;20574;-77
2023/01/09 06:14:00;;;;;;;17.60;8.00;;;6.30;99.90;;;;;;4913900;28;20059;-77
2023/01/09 06:16:26;;;;;;;11.95;7.90;;;6.20;99.90;;;;;;4905132;28;20119;-77
2023/01/09 06:18:52;;;;;;;15.25;8.20;;;6.30;99.90;;;;;;4905042;29;20183;-77
2023/01/09 06:21:17;;;;;;;13.75;9.02;;;6.30;99.90;;;;;;4905386;29;20163;-78
2023/01/09 06:23:43;;;;;;;14.45;6.22;;;6.30;99.90;;;;;;4906494;29;20048;-77
2023/01/09 06:26:09;;;;;;;13.13;7.72;;;6.30;99.90;;;;;;4902943;29;20405;-77
2023/01/09 06:28:34;;;;;;;13.27;7.25;;;6.30;99.90;;;;;;4904029;29;20056;-77
2023/01/09 06:31:00;;;;;;;9.52;5.88;;;6.30;99.90;;;;;;4909376;29;20043;-77
2023/01/09 06:33:25;;;;;;;17.80;7.88;;;6.30;99.90;;;;;;4924079;29;20043;-77
2023/01/09 06:35:51;;;;;;;9.75;6.72;;;6.30;99.90;;;;;;4922821;29;20536;-80
2023/01/09 06:38:16;;;;;;;10.73;6.88;;;6.30;99.90;;;;;;4922992;29;20048;-77
2023/01/09 06:40:42;;;;;;;10.95;6.97;;;6.30;99.90;;;;;;4922912;29;20050;-77
2023/01/09 06:43:08;;;;;;;13.13;7.10;;;6.30;99.90;;;;;;4915133;29;20048;-78
2023/01/09 06:45:33;;;;;;;14.85;7.95;;;6.30;99.90;;;;;;4905048;29;20079;-77
2023/01/09 06:47:59;;;;;;;10.68;7.22;;;6.30;99.90;;;;;;4922874;29;20482;-78
2023/01/09 06:50:24;;;;;;;12.10;6.40;;;6.30;99.90;;;;;;4923060;29;20086;-78
2023/01/09 06:52:50;;;;;;;14.32;7.53;;;6.30;99.90;;;;;;4921731;29;20036;-78
2023/01/09 06:55:16;;;;;;;15.07;8.68;;;6.30;99.90;;;;;;4923397;29;20083;-78
2023/01/09 06:57:42;;;;;;;15.40;8.38;;;6.30;99.90;;;;;;4903206;28;20264;-78
2023/01/09 07:00:08;;;;;;;8.45;6.72;;;6.30;99.90;;;;;;4904199;28;20425;-78
2023/01/09 07:02:34;;;;;;;20.45;8.07;;;6.30;99.90;;;;;;4922849;28;20040;-78
2023/01/09 07:04:59;;;;;;;8.27;6.63;;;6.30;99.90;;;;;;4905259;29;20052;-78
2023/01/09 07:07:25;;;;;;;9.23;6.68;;;6.30;99.90;;;;;;4925943;29;20126;-78
2023/01/09 07:09:51;;;;;;;23.15;8.75;;;6.30;99.90;;;;;;4891649;29;20094;-78
2023/01/09 07:12:16;;;;;;;9.27;7.15;;;6.20;99.90;;;;;;4918477;29;20051;-78
2023/01/09 07:14:42;;;;;;;16.30;10.25;;;6.20;99.90;;;;;;4921945;28;20390;-78
2023/01/09 07:17:12;;;;;;;9.68;8.38;;;6.20;99.90;;;;;;4906603;29;20052;-78
2023/01/09 07:19:38;;;;;;;10.38;6.90;;;6.20;99.90;;;;;;4898162;28;20090;-78
2023/01/09 07:22:03;;;;;;;10.63;7.30;;;6.20;99.90;;;;;;4908948;29;20087;-78
2023/01/09 07:24:29;;;;;;;10.68;7.07;;;6.20;99.90;;;;;;4908433;29;20102;-78
2023/01/09 07:26:54;;;;;;;9.20;6.78;;;6.20;99.90;;;;;;4918950;29;20111;-78
2023/01/09 07:29:20;;;;;;;14.13;7.90;;;6.20;99.90;;;;;;4890247;29;20449;-78
2023/01/09 07:31:46;;;;;;;10.05;6.72;;;6.20;99.90;;;;;;4895314;29;20038;-78
2023/01/09 07:34:11;;;;;;;10.55;6.57;;;6.20;99.90;;;;;;4982448;28;20478;-78
2023/01/09 07:36:37;;;;;;;14.13;8.07;;;6.10;99.90;;;;;;4914970;29;20036;-78
2023/01/09 07:39:02;;;;;;;13.50;7.70;;;6.10;99.90;;;;;;4920039;29;20048;-78
2023/01/09 07:41:28;;;;;;;10.57;8.40;;;6.10;99.90;;;;;;4906091;28;20064;-78
2023/01/09 07:43:55;;;;;;;8.85;6.40;;;6.10;99.90;;;;;;4889117;29;20056;-78
2023/01/09 07:46:20;;;;;;;15.68;8.10;;;6.10;99.90;;;;;;4907169;28;20471;-78
2023/01/09 07:48:46;;;;;;;9.15;6.90;;;6.00;99.90;;;;;;4914948;29;20123;-78
2023/01/09 07:51:12;;;;;;;11.77;7.10;;;6.00;99.90;;;;;;4908086;29;20510;-78
2023/01/09 07:53:38;;;;;;;8.63;7.18;;;6.00;99.90;;;;;;4925256;28;20036;-78
2023/01/09 07:56:03;;;;;;;9.30;6.22;;;6.00;99.90;;;;;;4924849;29;20052;-78
2023/01/09 07:58:29;;;;;;;10.40;6.85;;;6.00;99.90;;;;;;4924988;29;20475;-78
2023/01/09 08:00:54;;;;;;;12.57;6.50;;;6.00;99.90;;;;;;4908064;29;20089;-78
2023/01/09 08:03:20;;;;;;;8.98;5.88;;;6.00;99.90;;;;;;4910158;29;20135;-78
2023/01/09 08:05:46;;;;;;;16.65;7.00;;;6.00;99.90;;;;;;4925146;29;20460;-78
2023/01/09 08:08:13;;;;;;;11.07;6.65;;;6.00;99.90;;;;;;4907954;29;20051;-77
2023/01/09 08:10:39;;;;;;;9.57;5.50;;;6.10;99.90;;;;;;4925135;28;20105;-78
2023/01/09 08:13:05;;;;;;;8.18;6.00;;;6.00;99.90;;;;;;4923962;29;20052;-78
2023/01/09 08:15:32;;;;;;;12.63;6.47;;;6.10;99.90;;;;;;4908103;29;20047;-78
2023/01/09 08:17:58;;;;;;;10.40;5.35;;;6.10;99.90;;;;;;4923031;28;20540;-78
2023/01/09 08:20:23;;;;;;;6.45;4.97;;;6.10;99.90;;;;;;4891736;29;20062;-78
2023/01/09 08:22:49;;;;;;;12.00;5.60;;;6.10;99.90;;;;;;4906055;28;20045;-79
2023/01/09 08:25:15;;;;;;;9.68;6.60;;;6.10;99.90;;;;;;4906190;28;20048;-78
2023/01/09 08:27:41;;;;;;;13.27;5.32;;;6.10;99.90;;;;;;4907280;29;20354;-78
2023/01/09 08:30:11;;;;;;;15.10;6.75;;;6.10;99.90;;;;;;4924779;29;20130;-78
2023/01/09 08:32:37;;;;;;;9.18;5.53;;;6.10;99.90;;;;;;4909800;29;20038;-78
2023/01/09 08:35:03;;;;;;;8.50;5.45;;;6.10;99.90;;;;;;4905493;29;20052;-78
2023/01/09 08:37:29;;;;;;;7.63;5.78;;;6.10;99.90;;;;;;4906192;29;20082;-76
2023/01/09 08:39:55;;;;;;;8.82;4.60;;;6.10;99.90;;;;;;4905720;29;20478;-76
2023/01/09 08:47:51;;;;;;;12.48;5.60;;;6.20;99.90;;;;;;4905250;29;20554;-77
2023/01/09 08:50:16;;;;;;;10.70;5.68;;;6.20;99.90;;;;;;4911162;29;20040;-78
2023/01/09 08:52:42;;;;;;;7.65;5.15;;;6.20;99.90;;;;;;4908379;29;20722;-79
2023/01/09 08:55:08;;;;;;;5.00;3.90;;;6.20;99.90;;;;;;4899636;29;20044;-80
2023/01/09 08:57:33;;;;;;;9.82;5.10;;;6.20;99.90;;;;;;4908665;29;20047;-75
2023/01/09 08:59:59;;;;;;;5.80;3.72;;;6.20;99.90;;;;;;4919307;28;20052;-75
2023/01/09 09:02:24;;;;;;;5.50;3.75;;;6.20;99.90;;;;;;4910567;29;20490;-75
2023/01/09 09:04:54;;;;;;;6.22;4.63;;;6.20;99.90;;;;;;4913684;28;20060;-76
2023/01/09 09:07:25;;;;;;;11.77;4.50;;;6.20;99.90;;;;;;4889519;29;20099;-76
2023/01/09 09:09:54;;;;;;;6.32;4.47;;;6.20;99.90;;;;;;4905578;29;20352;-75
2023/01/09 09:12:20;;;;;;;7.93;4.22;;;6.20;99.90;;;;;;4904585;29;20490;-75
2023/01/09 09:17:31;;;;;;;5.05;3.85;;;6.20;99.90;;;;;;4919597;29;20078;-74
2023/01/09 09:19:57;;;;;;;7.78;3.42;;;6.20;99.90;;;;;;4917097;28;20047;-74
2023/01/09 09:22:23;;;;;;;8.05;4.97;;;6.20;99.90;;;;;;4911389;28;20040;-75
2023/01/09 09:24:48;;;;;;;6.40;4.18;;;6.20;99.90;;;;;;4908968;29;20679;-80
2023/01/09 09:27:14;;;;;;;7.35;4.47;;;6.20;99.90;;;;;;4904321;29;20044;-80
2023/01/09 09:29:39;;;;;;;5.00;3.58;;;6.20;99.90;;;;;;4887895;28;20570;-80
2023/01/09 09:32:05;;;;;;;5.90;4.72;;;6.30;99.90;;;;;;4908028;29;20090;-79
2023/01/09 09:34:31;;;;;;;8.63;5.28;;;6.30;99.90;;;;;;4910185;29;20090;-83
2023/01/09 09:36:57;;;;;;;5.18;4.07;;;6.30;99.90;;;;;;4908157;29;20048;-87
2023/01/09 09:39:22;;;;;;;6.38;3.03;;;6.30;99.90;;;;;;4915174;28;20052;-82
2023/01/09 09:45:40;;;;;;;8.60;3.53;;;6.30;99.90;;;;;;4893234;29;20052;-81
2023/01/09 09:48:35;;;;;;;6.72;3.42;;;6.40;99.90;;;;;;4905454;28;20137;-77
2023/01/09 09:51:30;;;;;;;8.93;4.00;;;6.40;99.90;;;;;;4903724;29;20478;-79
2023/01/09 09:54:08;;;;;;;6.85;4.30;;;6.40;99.90;;;;;;4907186;28;20043;-80
2023/01/09 09:56:58;;;;;;;6.97;3.47;;;6.50;99.90;;;;;;4884646;29;20104;-85
2023/01/09 09:59:35;;;;;;;4.53;2.80;;;6.50;99.90;;;;;;4906242;28;20040;-82
2023/01/09 10:02:04;;;;;;;5.63;4.30;;;6.50;99.90;;;;;;4903242;28;20047;-81
2023/01/09 10:04:32;;;;;;;6.97;4.32;;;6.50;99.90;;;;;;4880950;29;20059;-80
2023/01/09 10:07:19;;;;;;;20.42;4.35;;;6.50;99.90;;;;;;4888184;29;20122;-81
2023/01/09 10:09:53;;;;;;;4.63;4.10;;;6.60;99.90;;;;;;4946569;28;20084;-80
2023/01/09 10:12:32;;;;;;;6.00;3.97;;;6.60;99.90;;;;;;4888087;28;20044;-81
2023/01/09 10:15:12;;;;;;;8.52;4.10;;;6.60;99.90;;;;;;4901681;29;20060;-80
2023/01/09 10:18:05;;;;;;;4.32;3.92;;;6.70;99.90;;;;;;4922323;28;20036;-80
2023/01/09 10:20:54;;;;;;;10.70;5.00;;;6.70;99.90;;;;;;4915864;28;20048;-81
2023/01/09 10:23:22;;;;;;;8.77;4.32;;;6.70;99.90;;;;;;4905210;29;20039;-80
2023/01/09 10:26:15;;;;;;;7.28;3.47;;;6.70;99.90;;;;;;4907474;29;20087;-78
2023/01/09 10:28:57;;;;;;;7.07;4.80;;;6.70;99.90;;;;;;4881616;29;20109;-81
2023/01/09 10:31:53;;;;;;;5.22;3.38;;;6.70;99.90;;;;;;4902820;29;20083;-78
2023/01/09 10:34:40;;;;;;;5.32;4.00;;;6.70;99.90;;;;;;4888264;29;20522;-79
2023/01/09 10:37:20;;;;;;;6.78;4.82;;;6.70;99.90;;;;;;4904260;29;20044;-80
2023/01/09 10:39:51;;;;;;;6.50;3.10;;;6.70;99.90;;;;;;4911290;29;20040;-80
2023/01/09 10:42:25;;;;;;;4.70;3.58;;;6.70;99.90;;;;;;4905260;29;20052;-81
2023/01/09 10:45:00;;;;;;;4.20;3.50;;;6.80;99.90;;;;;;4878670;28;20505;-84
2023/01/09 10:47:33;;;;;;;7.85;3.45;;;6.80;99.90;;;;;;4899582;29;20128;-82
2023/01/09 10:50:06;;;;;;;10.30;5.72;;;6.70;99.90;;;;;;4908148;29;20048;-80
2023/01/09 10:52:36;;;;;;;7.22;3.38;;;6.80;99.90;;;;;;4909707;29;20071;-82
2023/01/09 10:55:20;;;;;;;8.07;4.47;;;6.70;99.90;;;;;;4909895;29;20056;-83
2023/01/09 10:57:51;;;;;;;5.50;4.15;;;6.70;99.90;;;;;;4902629;29;20040;-77
2023/01/09 11:00:22;;;;;;;12.30;4.38;;;6.70;99.90;;;;;;4905210;29;20051;-77
2023/01/09 11:02:49;;;;;;;6.17;4.40;;;6.70;99.90;;;;;;4904331;29;20491;-78
2023/01/09 11:05:19;;;;;;;6.53;4.18;;;6.70;99.90;;;;;;4898800;29;21085;-76
2023/01/09 11:08:20;;;;;;;8.32;4.47;;;6.80;99.90;;;;;;4899909;29;20044;-77
2023/01/09 11:10:54;;;;;;;6.45;4.28;;;6.80;99.90;;;;;;4887185;29;20051;-77
2023/01/09 11:13:24;;;;;;;6.72;4.88;;;6.80;99.90;;;;;;4890022;29;20127;-80
2023/01/09 11:16:03;;;;;;;17.10;5.70;;;6.90;99.90;;;;;;4914659;28;20036;-81
2023/01/09 11:18:29;;;;;;;5.07;2.95;;;6.90;99.90;;;;;;4901820;29;20063;-80
2023/01/09 11:20:54;;;;;;;7.60;3.40;;;6.90;99.90;;;;;;4913768;28;20027;-79
2023/01/09 11:23:32;;;;;;;4.75;3.45;;;6.90;99.90;;;;;;4904466;28;20391;-79
2023/01/09 11:26:00;;;;;;;14.75;4.50;;;7.00;99.90;;;;;;4913290;28;20101;-81
2023/01/09 11:28:26;;;;;;;9.27;6.05;;;7.00;99.90;;;;;;4893868;29;20404;-81
2023/01/09 11:31:01;;;;;;;7.47;4.82;;;7.00;99.90;;;;;;4906301;28;20040;-80
2023/01/09 11:33:30;;;;;;;8.57;4.68;;;7.00;99.90;;;;;;4903487;28;20046;-79
2023/01/09 11:36:11;;;;;;;8.20;4.13;;;7.10;99.90;;;;;;4889789;29;20036;-79
2023/01/09 11:38:50;;;;;;;8.57;5.25;;;7.10;99.90;;;;;;4911608;29;20047;-80
2023/01/09 11:41:33;;;;;;;7.78;5.80;;;7.10;99.90;;;;;;4915891;29;20060;-76
2023/01/09 11:44:01;;;;;;;9.82;5.43;;;7.10;99.90;;;;;;4903162;28;20059;-79
2023/01/09 11:46:36;;;;;;;7.47;5.03;;;7.10;99.90;;;;;;4871017;28;20048;-78
2023/01/09 11:49:18;;;;;;;10.57;6.10;;;7.10;99.90;;;;;;4902309;28;20388;-78
2023/01/09 11:51:44;;;;;;;6.57;4.80;;;7.20;99.90;;;;;;4896387;29;20048;-78
2023/01/09 11:54:33;;;;;;;6.95;4.75;;;7.20;99.90;;;;;;4915192;29;20054;-78
2023/01/09 11:56:59;;;;;;;10.82;5.78;;;7.20;99.90;;;;;;4895794;29;20477;-78
2023/01/09 11:59:27;;;;;;;9.80;5.53;;;7.20;99.90;;;;;;4923880;29;20122;-78
2023/01/09 12:02:31;;;;;;;10.70;6.47;;;7.20;99.90;;;;;;4894750;28;20544;-78
2023/01/09 12:05:40;;;;;;;8.73;7.10;;;7.30;99.90;;;;;;4890679;29;20494;-77
2023/01/09 12:08:19;;;;;;;7.70;5.25;;;7.20;99.90;;;;;;4900121;29;20694;-77
2023/01/09 12:10:57;;;;;;;9.13;5.32;;;7.30;99.90;;;;;;4895621;29;20048;-76
2023/01/09 12:13:52;;;;;;;9.55;6.70;;;7.30;99.90;;;;;;4909951;29;20056;-77
2023/01/09 12:16:35;;;;;;;8.38;6.28;;;7.40;99.90;;;;;;4906660;28;20048;-76
2023/01/09 12:19:19;;;;;;;;;;;7.40;99.90;;;;;;4907404;29;20510;-77
2023/01/09 12:22:01;;;;;;;8.43;5.35;;;7.40;99.90;;;;;;4911390;29;19922;-77
2023/01/09 12:24:34;;;;;;;11.02;6.07;;;7.40;99.90;;;;;;4896565;29;20060;-78
2023/01/09 12:27:00;;;;;;;8.20;5.57;;;7.40;99.90;;;;;;4888535;29;20071;-77
2023/01/09 12:29:33;;;;;;;11.00;6.28;;;7.50;99.90;;;;;;4889561;29;20433;-77
2023/01/09 12:32:20;;;;;;;9.80;5.68;;;7.50;99.90;;;;;;4906152;29;20139;-77
2023/01/09 12:35:04;;;;;;;9.98;5.95;;;7.50;99.90;;;;;;4905846;29;20515;-80
2023/01/09 12:37:50;;;;;;;7.82;5.60;;;7.50;99.90;;;;;;4911452;29;20041;-76
2023/01/09 12:40:36;;;;;;;10.07;7.35;;;7.40;99.90;;;;;;4906740;28;20059;-77
2023/01/09 12:43:23;;;;;;;9.75;5.38;;;7.50;99.90;;;;;;4905369;28;20048;-77
2023/01/09 12:46:15;;;;;;;9.05;6.10;;;7.50;99.90;;;;;;4888802;28;20052;-76
2023/01/09 12:48:49;;;;;;;9.45;5.13;;;7.40;99.90;;;;;;4906243;29;20075;-78
2023/01/09 12:51:17;;;;;;;6.88;4.80;;;7.50;99.90;;;;;;4906766;29;20095;-76
2023/01/09 12:53:55;;;;;;;12.93;5.70;;;7.50;99.90;;;;;;4902775;29;20728;-78
2023/01/09 12:56:28;;;;;;;7.90;5.15;;;7.60;99.90;;;;;;4905676;29;20115;-77
2023/01/09 12:59:06;;;;;;;10.30;4.72;;;7.60;99.90;;;;;;4915304;29;20059;-78
2023/01/09 13:01:38;;;;;;;12.27;5.10;;;7.60;99.90;;;;;;4894184;29;20048;-78
2023/01/09 13:04:18;;;;;;;6.45;3.58;;;7.60;99.90;;;;;;4904925;29;20056;-76
2023/01/09 13:06:48;;;;;;;9.52;3.22;;;7.70;99.90;;;;;;4889799;29;20076;-77
2023/01/09 13:09:24;;;;;;;22.65;5.82;;;7.60;99.90;;;;;;4906530;28;20093;-78
2023/01/09 13:12:03;;;;;;;15.40;3.28;;;7.70;99.90;;;;;;4904612;29;20044;-76
2023/01/09 13:14:43;;;;;;;3.58;2.95;;;7.70;99.90;;;;;;4887943;29;20063;-76
2023/01/09 13:17:18;;;;;;;7.78;3.22;;;7.80;99.90;;;;;;4908854;28;20630;-77
2023/01/09 13:19:45;;;;;;;3.30;2.55;;;7.80;99.90;;;;;;4906962;29;20041;-76
2023/01/09 13:22:11;;;;;;;8.40;2.58;;;7.80;99.90;;;;;;4907831;29;20048;-76
2023/01/09 13:25:02;;;;;;;9.02;2.13;;;7.90;99.90;;;;;;4911152;29;20067;-78
2023/01/09 13:27:33;;;;;;;4.03;1.83;;;7.90;99.90;;;;;;4887291;29;20064;-80
2023/01/09 13:30:07;;;;;;;19.92;4.78;;;8.00;99.90;;;;;;4900601;29;20043;-80
2023/01/09 13:33:12;;;;;;;9.20;3.08;;;8.00;99.90;;;;;;4863336;29;20692;-80